Time;durP1;ratioP1;P1;durP2;ratioP2;P2;SDS_P1;SDS_P2;PMS_P1;PMS_P2;Temp;Humidity;BMP_temperature;BMP_pressure;BME280_temperature;BME280_humidity;BME280_pressure;Samples;Min_cycle;Max_cycle;Signal;HPM_P1;HPM_P2
2022/11/14 00:00:23;;;;;;;;;;;;;;;12.25;60.46;101841.84;5042175;28;20548;-74
2022/11/14 00:02:48;;;;;;;;;;;;;;;11.95;62.12;101848.72;5040615;28;20003;-73
2022/11/14 00:05:13;;;;;;;;;;;;;;;12.14;61.03;101847.88;5042821;28;19913;-74
2022/11/14 00:07:39;;;;;;;;;;;;;;;12.43;60.38;101851.94;5040931;28;19921;-74
2022/11/14 00:10:04;;;;;;;;;;;;;;;12.06;61.07;101845.41;5041852;28;19939;-75
2022/11/14 00:12:29;;;;;;;;;;;;;;;12.28;61.33;101835.22;5042636;28;19921;-75
2022/11/14 00:14:55;;;;;;;;;;;;;;;12.62;60.19;101825.97;5043807;28;19919;-74
2022/11/14 00:17:20;;;;;;;;;;;;;;;12.36;60.92;101827.69;5039017;28;20637;-74
2022/11/14 00:19:45;;;;;;;;;;;;;;;12.56;60.09;101826.81;5035510;28;20331;-75
2022/11/14 00:22:10;;;;;;;;;;;;;;;12.34;61.21;101823.56;5052382;28;19991;-76
2022/11/14 00:24:36;;;;;;;;;;;;;;;12.17;61.42;101817.81;5039305;28;20361;-74
2022/11/14 00:27:01;;;;;;;;;;;;;;;12.19;62.07;101815.75;5032027;28;19909;-75
2022/11/14 00:29:26;;;;;;;;;;;;;;;12.06;61.76;101812.25;5031026;28;20358;-76
2022/11/14 00:31:51;;;;;;;;;;;;;;;12.46;60.09;101811.06;5032179;28;20300;-75
2022/11/14 00:34:17;;;;;;;;;;;;;;;12.20;61.17;101803.94;5032936;28;19936;-75
2022/11/14 00:36:42;;;;;;;;;;;;;;;12.01;61.21;101807.50;5032402;28;20015;-76
2022/11/14 00:39:11;;;;;;;;;;;;;;;12.23;60.87;101802.66;5033023;28;20365;-74
2022/11/14 00:41:36;;;;;;;;;;;;;;;12.16;61.15;101796.47;5033034;28;19924;-76
2022/11/14 00:44:01;;;;;;;;;;;;;;;11.44;63.36;101802.75;5032357;28;19917;-75
2022/11/14 00:46:27;;;;;;;;;;;;;;;11.77;62.91;101793.88;5032518;28;19913;-75
2022/11/14 00:48:52;;;;;;;;;;;;;;;12.34;61.30;101793.94;5032588;28;19996;-75
2022/11/14 00:51:17;;;;;;;;;;;;;;;12.46;60.47;101781.41;5032843;28;19929;-74
2022/11/14 00:53:42;;;;;;;;;;;;;;;12.38;60.37;101778.16;5033233;28;19913;-75
2022/11/14 00:56:08;;;;;;;;;;;;;;;12.29;60.57;101780.25;5032535;28;19913;-74
2022/11/14 00:58:33;;;;;;;;;;;;;;;12.39;60.08;101777.94;5032768;28;19928;-76
2022/11/14 01:00:58;;;;;;;;;;;;;;;11.96;61.48;101784.91;5035487;28;19952;-76
2022/11/14 01:03:23;;;;;;;;;;;;;;;11.76;61.92;101782.28;5036753;28;20422;-75
2022/11/14 01:05:50;;;;;;;;;;;;;;;12.23;60.46;101778.41;5037197;28;20361;-76
2022/11/14 01:08:16;;;;;;;;;;;;;;;12.35;60.21;101768.63;5036734;28;19923;-75
2022/11/14 01:10:42;;;;;;;;;;;;;;;12.31;59.93;101762.84;5036512;28;19917;-73
2022/11/14 01:13:08;;;;;;;;;;;;;;;12.38;60.07;101770.06;5040978;28;19920;-76
2022/11/14 01:15:37;;;;;;;;;;;;;;;12.45;59.58;101766.28;5056283;28;19932;-75
2022/11/14 01:18:02;;;;;;;;;;;;;;;12.12;60.43;101765.59;5055539;28;20374;-75
2022/11/14 01:20:27;;;;;;;;;;;;;;;12.44;59.63;101753.03;5055108;28;19947;-75
2022/11/14 01:22:53;;;;;;;;;;;;;;;12.27;59.69;101758.06;5054888;28;20529;-73
2022/11/14 01:25:18;;;;;;;;;;;;;;;12.05;60.11;101754.00;5037853;28;19917;-75
2022/11/14 01:27:43;;;;;;;;;;;;;;;12.26;59.60;101741.06;5035884;28;19920;-75
2022/11/14 01:30:09;;;;;;;;;;;;;;;12.03;60.53;101740.75;5035390;28;19913;-74
2022/11/14 01:32:34;;;;;;;;;;;;;;;11.70;61.32;101740.03;5035721;28;19919;-75
2022/11/14 01:34:59;;;;;;;;;;;;;;;11.93;60.58;101743.06;5035095;28;19913;-76
2022/11/14 01:37:24;;;;;;;;;;;;;;;12.11;60.00;101727.06;5033503;28;19921;-75
2022/11/14 01:39:49;;;;;;;;;;;;;;;11.79;61.08;101724.47;5035203;28;19921;-76
2022/11/14 01:42:15;;;;;;;;;;;;;;;12.10;60.01;101709.25;5035093;28;19921;-74
2022/11/14 01:44:44;;;;;;;;;;;;;;;12.13;59.75;101710.66;5042700;28;19919;-75
2022/11/14 01:47:10;;;;;;;;;;;;;;;12.27;59.34;101709.56;5054645;28;19916;-75
2022/11/14 01:49:38;;;;;;;;;;;;;;;12.28;59.16;101703.97;5055210;28;19995;-76
2022/11/14 01:52:05;;;;;;;;;;;;;;;12.15;59.58;101697.81;5054928;28;19912;-76
2022/11/14 01:54:36;;;;;;;;;;;;;;;12.17;59.56;101684.94;5054993;28;20019;-74
2022/11/14 01:57:02;;;;;;;;;;;;;;;12.13;59.49;101689.13;5054950;28;19923;-74
2022/11/14 01:59:30;;;;;;;;;;;;;;;11.99;60.18;101687.53;5055577;28;19912;-76
2022/11/14 02:01:56;;;;;;;;;;;;;;;12.12;59.08;101685.63;5055118;28;19916;-75
2022/11/14 02:04:24;;;;;;;;;;;;;;;11.97;59.67;101682.34;5055161;28;19924;-74
2022/11/14 02:06:51;;;;;;;;;;;;;;;11.90;59.79;101675.34;5054904;28;19916;-74
2022/11/14 02:09:16;;;;;;;;;;;;;;;12.03;59.90;101672.56;5055038;28;19962;-74
2022/11/14 02:11:43;;;;;;;;;;;;;;;11.93;60.03;101670.34;5054620;28;19959;-75
2022/11/14 02:14:09;;;;;;;;;;;;;;;12.05;59.50;101665.94;5046841;28;19917;-74
2022/11/14 02:16:34;;;;;;;;;;;;;;;11.87;59.80;101665.00;5034680;28;20380;-74
2022/11/14 02:19:01;;;;;;;;;;;;;;;11.99;59.38;101658.72;5038488;28;20404;-74
2022/11/14 02:21:26;;;;;;;;;;;;;;;12.00;59.77;101655.00;5054701;28;20015;-74
2022/11/14 02:23:51;;;;;;;;;;;;;;;11.83;60.42;101656.50;5054942;28;20067;-75
2022/11/14 02:26:18;;;;;;;;;;;;;;;11.90;60.20;101651.09;5054597;28;19982;-75
2022/11/14 02:28:43;;;;;;;;;;;;;;;11.80;60.40;101645.34;5053277;28;19913;-74
2022/11/14 02:31:08;;;;;;;;;;;;;;;11.37;62.37;101653.94;5054670;28;20278;-75
2022/11/14 02:33:33;;;;;;;;;;;;;;;11.69;61.68;101649.53;5054334;28;19917;-75
2022/11/14 02:35:58;;;;;;;;;;;;;;;11.49;61.61;101643.34;5054643;28;19913;-73
2022/11/14 02:38:24;;;;;;;;;;;;;;;11.72;61.46;101643.72;5054795;28;19916;-75
2022/11/14 02:40:49;;;;;;;;;;;;;;;11.55;61.37;101647.06;5054560;28;20319;-76
2022/11/14 02:43:14;;;;;;;;;;;;;;;11.58;61.45;101642.06;5054408;28;20324;-75
2022/11/14 02:45:39;;;;;;;;;;;;;;;11.87;60.75;101638.88;5054766;28;19972;-74
2022/11/14 02:48:05;;;;;;;;;;;;;;;11.60;61.27;101631.09;5054342;28;19939;-74
2022/11/14 02:50:31;;;;;;;;;;;;;;;11.28;63.26;101638.25;5054708;28;20034;-74
2022/11/14 02:52:56;;;;;;;;;;;;;;;11.49;61.54;101630.72;5054283;28;19966;-75
2022/11/14 02:55:21;;;;;;;;;;;;;;;11.26;62.93;101630.34;5054415;28;19956;-75
2022/11/14 02:57:46;;;;;;;;;;;;;;;11.51;61.62;101625.13;5054254;28;19990;-75
2022/11/14 03:00:12;;;;;;;;;;;;;;;11.56;61.41;101625.31;5054146;28;20454;-74
2022/11/14 03:02:37;;;;;;;;;;;;;;;11.30;62.44;101623.50;5053436;28;19912;-75
2022/11/14 03:05:02;;;;;;;;;;;;;;;11.47;61.52;101627.41;5054032;28;19923;-76
2022/11/14 03:07:28;;;;;;;;;;;;;;;11.43;61.51;101614.59;5053974;28;19917;-75
2022/11/14 03:09:53;;;;;;;;;;;;;;;11.54;61.60;101613.13;5051227;28;20014;-75
2022/11/14 03:12:18;;;;;;;;;;;;;;;11.42;61.99;101607.53;5053830;28;19966;-76
2022/11/14 03:14:44;;;;;;;;;;;;;;;11.28;62.29;101604.06;5054273;28;19913;-76
2022/11/14 03:17:09;;;;;;;;;;;;;;;11.17;62.96;101607.41;5053709;28;19916;-75
2022/11/14 03:19:34;;;;;;;;;;;;;;;11.51;61.82;101608.97;5054127;28;20269;-75
2022/11/14 03:22:00;;;;;;;;;;;;;;;11.11;62.49;101608.25;5053143;28;19917;-74
2022/11/14 03:24:25;;;;;;;;;;;;;;;11.15;62.75;101605.97;5042686;28;19917;-75
2022/11/14 03:26:50;;;;;;;;;;;;;;;11.04;63.42;101609.31;5034373;28;20000;-75
2022/11/14 03:29:15;;;;;;;;;;;;;;;11.36;62.13;101608.41;5034014;28;19921;-75
2022/11/14 03:31:41;;;;;;;;;;;;;;;11.28;62.15;101612.13;5033885;28;19929;-75
2022/11/14 03:34:06;;;;;;;;;;;;;;;11.65;60.97;101609.75;5033885;28;19923;-75
2022/11/14 03:36:33;;;;;;;;;;;;;;;11.54;60.93;101605.03;5033782;28;20353;-76
2022/11/14 03:38:58;;;;;;;;;;;;;;;11.27;62.29;101598.91;5032748;28;19913;-74
2022/11/14 03:41:23;;;;;;;;;;;;;;;11.51;60.74;101592.81;5033573;28;19939;-76
2022/11/14 03:43:48;;;;;;;;;;;;;;;11.52;60.81;101596.34;5033833;28;19963;-76
2022/11/14 03:46:13;;;;;;;;;;;;;;;11.79;59.87;101592.53;5033738;28;20000;-75
2022/11/14 03:48:39;;;;;;;;;;;;;;;11.56;60.57;101589.50;5033807;28;19917;-76
2022/11/14 03:51:04;;;;;;;;;;;;;;;11.41;61.06;101593.28;5032460;28;19916;-74
2022/11/14 03:53:29;;;;;;;;;;;;;;;11.33;60.76;101587.28;5034469;28;19972;-74
2022/11/14 03:55:54;;;;;;;;;;;;;;;11.62;60.06;101588.63;5033800;28;20002;-75
2022/11/14 03:58:20;;;;;;;;;;;;;;;11.36;61.06;101584.19;5033421;28;20403;-76
2022/11/14 04:00:45;;;;;;;;;;;;;;;11.31;60.90;101581.28;5033557;28;19916;-76
2022/11/14 04:03:10;;;;;;;;;;;;;;;11.14;61.87;101578.25;5033355;28;20403;-74
2022/11/14 04:05:35;;;;;;;;;;;;;;;10.92;62.71;101576.00;5043312;28;19916;-75
2022/11/14 04:08:03;;;;;;;;;;;;;;;10.94;62.18;101571.25;5053069;28;19917;-75
2022/11/14 04:10:28;;;;;;;;;;;;;;;10.60;63.02;101581.22;5053143;28;20311;-75
2022/11/14 04:12:53;;;;;;;;;;;;;;;11.10;61.95;101570.81;5052798;28;19916;-75
2022/11/14 04:15:19;;;;;;;;;;;;;;;11.15;61.17;101573.69;5050286;28;20388;-75
2022/11/14 04:17:45;;;;;;;;;;;;;;;11.25;60.84;101566.84;5053203;28;20325;-76
2022/11/14 04:20:11;;;;;;;;;;;;;;;11.00;61.27;101573.09;5052869;28;20269;-74
2022/11/14 04:22:36;;;;;;;;;;;;;;;10.91;61.68;101561.72;5052940;28;19917;-75
2022/11/14 04:25:02;;;;;;;;;;;;;;;11.06;61.00;101561.50;5036737;28;19967;-75
2022/11/14 04:27:27;;;;;;;;;;;;;;;11.16;60.50;101560.00;5033107;28;19913;-75
2022/11/14 04:29:52;;;;;;;;;;;;;;;11.18;60.05;101557.94;5033095;28;19913;-76
2022/11/14 04:32:17;;;;;;;;;;;;;;;11.12;60.00;101553.44;5032354;28;19917;-74
2022/11/14 04:34:43;;;;;;;;;;;;;;;10.99;60.72;101552.63;5032449;28;19928;-75
2022/11/14 04:37:08;;;;;;;;;;;;;;;11.03;60.63;101553.84;5032582;28;19921;-76
2022/11/14 04:39:33;;;;;;;;;;;;;;;11.03;60.56;101549.31;5032652;28;19921;-76
2022/11/14 04:41:59;;;;;;;;;;;;;;;10.65;61.63;101552.88;5032874;28;20372;-74
2022/11/14 04:44:24;;;;;;;;;;;;;;;10.86;60.98;101550.78;5033223;28;19913;-74
2022/11/14 04:46:49;;;;;;;;;;;;;;;10.91;60.66;101545.59;5032627;28;20000;-75
2022/11/14 04:49:14;;;;;;;;;;;;;;;10.95;60.93;101552.22;5032309;28;20595;-74
2022/11/14 04:51:39;;;;;;;;;;;;;;;11.09;60.02;101544.94;5032356;28;19924;-74
2022/11/14 04:54:05;;;;;;;;;;;;;;;10.97;60.31;101542.06;5032819;28;19909;-73
2022/11/14 04:56:30;;;;;;;;;;;;;;;10.92;60.38;101541.88;5033174;28;19959;-74
2022/11/14 04:58:55;;;;;;;;;;;;;;;10.73;61.16;101545.41;5032598;28;19951;-74
2022/11/14 05:01:21;;;;;;;;;;;;;;;10.81;60.40;101555.16;5033371;28;20011;-75
2022/11/14 05:03:46;;;;;;;;;;;;;;;10.88;60.38;101548.72;5032024;28;19917;-74
2022/11/14 05:06:11;;;;;;;;;;;;;;;10.78;60.52;101548.31;5035478;28;20010;-75
2022/11/14 05:08:36;;;;;;;;;;;;;;;10.91;59.87;101542.09;5047966;28;19998;-74
2022/11/14 05:11:02;;;;;;;;;;;;;;;10.60;60.76;101543.59;5050060;28;19922;-74
2022/11/14 05:13:27;;;;;;;;;;;;;;;10.50;61.48;101545.88;5051968;28;19917;-75
2022/11/14 05:15:52;;;;;;;;;;;;;;;10.59;61.41;101544.59;5052247;28;20396;-75
2022/11/14 05:18:17;;;;;;;;;;;;;;;10.82;60.50;101538.81;5052242;28;20418;-75
2022/11/14 05:20:43;;;;;;;;;;;;;;;10.72;60.55;101538.41;5052668;28;19912;-74
2022/11/14 05:23:17;;;;;;;;;;;;;;;10.56;61.20;101530.75;5050419;28;19917;-76
2022/11/14 05:25:42;;;;;;;;;;;;;;;10.54;61.21;101532.84;5032201;28;20391;-75
2022/11/14 05:28:07;;;;;;;;;;;;;;;10.53;61.17;101529.31;5043735;28;19913;-76
2022/11/14 05:30:32;;;;;;;;;;;;;;;10.72;60.50;101530.34;5051973;28;19923;-74
2022/11/14 05:32:59;;;;;;;;;;;;;;;10.65;60.72;101516.09;5052219;28;20253;-71
2022/11/14 05:35:24;;;;;;;;;;;;;;;10.60;60.93;101524.78;5052615;28;19909;-77
2022/11/14 05:37:50;;;;;;;;;;;;;;;10.41;61.44;101517.56;5050010;28;20008;-74
2022/11/14 05:40:16;;;;;;;;;;;;;;;10.54;61.31;101520.22;5052079;28;19955;-75
2022/11/14 05:42:42;;;;;;;;;;;;;;;10.40;61.65;101517.75;5051852;28;19927;-74
2022/11/14 05:45:07;;;;;;;;;;;;;;;10.46;61.67;101512.38;5045451;28;20374;-74
2022/11/14 05:47:32;;;;;;;;;;;;;;;10.60;61.02;101508.66;5046112;28;19991;-76
2022/11/14 05:49:58;;;;;;;;;;;;;;;10.60;61.15;101516.72;5044554;28;20395;-75
2022/11/14 05:52:23;;;;;;;;;;;;;;;10.60;60.75;101515.88;5043878;28;20419;-75
2022/11/14 05:54:48;;;;;;;;;;;;;;;10.60;60.66;101518.56;5044005;28;20387;-74
2022/11/14 05:57:13;;;;;;;;;;;;;;;10.77;60.13;101514.41;5045035;28;19909;-74
2022/11/14 05:59:38;;;;;;;;;;;;;;;10.56;60.72;101509.25;5044399;28;19920;-75
2022/11/14 06:02:04;;;;;;;;;;;;;;;10.44;61.34;101517.13;5045421;28;20385;-73
2022/11/14 06:04:29;;;;;;;;;;;;;;;10.73;60.60;101507.78;5043861;28;20008;-74
2022/11/14 06:06:54;;;;;;;;;;;;;;;10.83;60.53;101507.38;5044908;28;20396;-74
2022/11/14 06:09:19;;;;;;;;;;;;;;;10.83;61.04;101505.50;5041026;28;19963;-75
2022/11/14 06:11:45;;;;;;;;;;;;;;;10.89;60.59;101510.03;5043898;28;19964;-74
2022/11/14 06:14:10;;;;;;;;;;;;;;;10.87;60.74;101514.78;5046900;28;19966;-74
2022/11/14 06:16:36;;;;;;;;;;;;;;;10.89;60.69;101501.97;5053875;28;19985;-75
2022/11/14 06:19:01;;;;;;;;;;;;;;;10.93;60.40;101511.25;5053499;28;20292;-75
2022/11/14 06:21:26;;;;;;;;;;;;;;;10.96;60.28;101504.66;5054199;28;19917;-75
2022/11/14 06:23:52;;;;;;;;;;;;;;;10.91;60.43;101512.53;5054074;28;19919;-74
2022/11/14 06:26:24;;;;;;;;;;;;;;;10.64;61.58;101514.44;5045758;28;19963;-74
2022/11/14 06:28:50;;;;;;;;;;;;;;;10.57;61.73;101511.75;5051499;28;19912;-75
2022/11/14 06:31:15;;;;;;;;;;;;;;;10.92;60.80;101509.63;5054073;28;19924;-75
2022/11/14 06:33:41;;;;;;;;;;;;;;;10.53;62.18;101507.00;5053964;28;19925;-75
2022/11/14 06:36:07;;;;;;;;;;;;;;;10.86;61.21;101509.63;5053789;28;20288;-75
2022/11/14 06:38:33;;;;;;;;;;;;;;;10.95;60.64;101506.50;5053945;28;20382;-74
2022/11/14 06:41:06;;;;;;;;;;;;;;;10.54;62.71;101509.47;5053861;28;19912;-74
2022/11/14 06:43:35;;;;;;;;;;;;;;;10.85;61.86;101498.03;5053885;28;19923;-75
2022/11/14 06:46:00;;;;;;;;;;;;;;;10.89;61.27;101501.97;5042425;28;19948;-75
2022/11/14 06:48:26;;;;;;;;;;;;;;;10.84;61.73;101504.47;5047563;28;19968;-75
2022/11/14 06:50:52;;;;;;;;;;;;;;;10.99;61.53;101512.28;5052394;28;19916;-75
2022/11/14 06:53:17;;;;;;;;;;;;;;;11.09;60.66;101502.72;5051955;28;19921;-74
2022/11/14 06:55:42;;;;;;;;;;;;;;;10.76;61.58;101511.91;5052201;28;19917;-74
2022/11/14 06:58:07;;;;;;;;;;;;;;;11.04;61.24;101510.63;5053444;28;19920;-75
2022/11/14 07:00:32;;;;;;;;;;;;;;;10.99;60.99;101518.50;5047650;28;19916;-75
2022/11/14 07:02:58;;;;;;;;;;;;;;;10.91;61.00;101515.22;5042189;28;19920;-71
2022/11/14 07:05:23;;;;;;;;;;;;;;;10.92;61.12;101516.84;5050679;28;20158;-74
2022/11/14 07:07:48;;;;;;;;;;;;;;;10.77;61.75;101514.41;5050492;28;19916;-75
2022/11/14 07:10:14;;;;;;;;;;;;;;;10.78;61.32;101513.38;5039152;28;19954;-75
2022/11/14 07:12:39;;;;;;;;;;;;;;;10.90;60.90;101519.75;5033319;28;19917;-75
2022/11/14 07:15:04;;;;;;;;;;;;;;;10.81;60.78;101515.63;5033124;28;19999;-74
2022/11/14 07:17:29;;;;;;;;;;;;;;;10.75;61.58;101523.72;5047538;28;19915;-75
2022/11/14 07:19:55;;;;;;;;;;;;;;;10.74;61.00;101512.13;5032155;28;19924;-75
2022/11/14 07:22:20;;;;;;;;;;;;;;;10.82;61.03;101516.47;5032898;28;19917;-75
2022/11/14 07:24:45;;;;;;;;;;;;;;;10.85;60.63;101511.47;5043852;28;19977;-75
2022/11/14 07:27:10;;;;;;;;;;;;;;;10.72;61.47;101514.22;5042542;28;19960;-76
2022/11/14 07:29:36;;;;;;;;;;;;;;;10.84;60.87;101514.38;5041964;28;19909;-76
2022/11/14 07:32:01;;;;;;;;;;;;;;;10.87;60.75;101514.00;5035409;28;19928;-75
2022/11/14 07:34:26;;;;;;;;;;;;;;;10.82;60.92;101505.72;5032462;28;19917;-76
2022/11/14 07:36:53;;;;;;;;;;;;;;;10.74;61.60;101506.75;5032444;28;19921;-76
2022/11/14 07:39:19;;;;;;;;;;;;;;;10.93;60.59;101511.25;5033582;28;19943;-78
2022/11/14 07:41:44;;;;;;;;;;;;;;;10.88;60.85;101502.19;5047129;28;20012;-77
2022/11/14 07:44:09;;;;;;;;;;;;;;;10.89;60.67;101507.34;5041633;28;19917;-78
2022/11/14 07:46:34;;;;;;;;;;;;;;;10.94;60.82;101515.63;5040366;28;19917;-77
2022/11/14 07:49:00;;;;;;;;;;;;;;;10.94;60.75;101514.78;5041211;28;19916;-76
2022/11/14 07:51:25;;;;;;;;;;;;;;;10.98;60.62;101508.78;5044243;28;19975;-77
2022/11/14 07:53:52;;;;;;;;;;;;;;;10.91;60.91;101510.66;5040618;28;19912;-76
2022/11/14 07:56:19;;;;;;;;;;;;;;;10.93;60.70;101505.09;5041623;28;19955;-77
2022/11/14 07:58:44;;;;;;;;;;;;;;;11.14;60.39;101504.78;5043405;28;20015;-78
2022/11/14 08:01:10;;;;;;;;;;;;;;;10.92;61.02;101506.09;5042828;28;20379;-79
2022/11/14 08:03:36;;;;;;;;;;;;;;;10.94;61.04;101496.78;5038692;28;20283;-79
2022/11/14 08:06:04;;;;;;;;;;;;;;;11.06;60.62;101497.78;5040783;28;19917;-77
2022/11/14 08:08:29;;;;;;;;;;;;;;;11.21;60.42;101502.91;5041936;28;19921;-77
2022/11/14 08:10:56;;;;;;;;;;;;;;;11.13;61.16;101490.50;5052039;28;20399;-77
2022/11/14 08:13:21;;;;;;;;;;;;;;;11.23;60.93;101490.06;5052471;28;19924;-77
2022/11/14 08:15:46;;;;;;;;;;;;;;;11.06;61.61;101478.97;5052418;28;19917;-76
2022/11/14 08:18:11;;;;;;;;;;;;;;;11.13;61.45;101484.31;5052502;28;19912;-77
2022/11/14 08:20:37;;;;;;;;;;;;;;;11.11;61.66;101479.13;5050815;28;19912;-77
2022/11/14 08:23:08;;;;;;;;;;;;;;;11.05;62.29;101474.63;5051448;28;20023;-76
2022/11/14 08:25:33;;;;;;;;;;;;;;;11.30;61.20;101472.84;5031352;28;19917;-77
2022/11/14 08:27:58;;;;;;;;;;;;;;;11.37;60.99;101480.88;5041712;28;19935;-77
2022/11/14 08:30:24;;;;;;;;;;;;;;;11.44;61.28;101478.97;5051462;28;19952;-77
2022/11/14 08:32:49;;;;;;;;;;;;;;;11.57;61.01;101478.09;5051685;28;19912;-78
2022/11/14 08:35:14;;;;;;;;;;;;;;;11.40;61.60;101473.22;5050918;28;19920;-77
2022/11/14 08:37:39;;;;;;;;;;;;;;;11.33;61.15;101472.44;5049006;28;19921;-76
2022/11/14 08:40:05;;;;;;;;;;;;;;;11.58;61.27;101474.38;5051120;28;19921;-76
2022/11/14 08:42:30;;;;;;;;;;;;;;;11.73;61.15;101474.91;5051213;28;19923;-77
2022/11/14 08:44:56;;;;;;;;;;;;;;;11.45;62.38;101475.25;5051512;28;20287;-77
2022/11/14 08:47:21;;;;;;;;;;;;;;;11.13;64.07;101473.53;5036807;28;19924;-76
2022/11/14 08:49:46;;;;;;;;;;;;;;;11.49;62.53;101465.72;5031143;28;20273;-78
2022/11/14 08:52:11;;;;;;;;;;;;;;;11.75;61.63;101465.59;5031142;28;20179;-76
2022/11/14 08:54:37;;;;;;;;;;;;;;;11.82;61.58;101470.91;5032054;28;19917;-77
2022/11/14 08:57:03;;;;;;;;;;;;;;;11.88;61.49;101470.88;5050844;28;20107;-78
2022/11/14 08:59:29;;;;;;;;;;;;;;;11.84;61.93;101460.75;5051223;28;19920;-76
2022/11/14 09:01:54;;;;;;;;;;;;;;;11.83;61.97;101464.50;5050959;28;19998;-77
2022/11/14 09:04:19;;;;;;;;;;;;;;;11.55;62.62;101462.16;5050873;28;20376;-77
2022/11/14 09:06:45;;;;;;;;;;;;;;;11.38;64.03;101463.69;5050843;28;20311;-78
2022/11/14 09:09:10;;;;;;;;;;;;;;;11.62;63.38;101462.09;5050779;28;19928;-78
2022/11/14 09:11:35;;;;;;;;;;;;;;;11.74;62.99;101458.53;5051590;28;19921;-77
2022/11/14 09:14:01;;;;;;;;;;;;;;;11.22;64.01;101451.56;5050814;28;19927;-78
2022/11/14 09:16:26;;;;;;;;;;;;;;;11.43;64.53;101459.34;5049532;28;19917;-77
2022/11/14 09:18:52;;;;;;;;;;;;;;;11.66;63.45;101444.50;5050450;28;19916;-78
2022/11/14 09:21:17;;;;;;;;;;;;;;;12.27;61.67;101448.16;5052984;28;19979;-77
2022/11/14 09:23:45;;;;;;;;;;;;;;;12.12;62.50;101443.13;5050257;28;19963;-78
2022/11/14 09:26:10;;;;;;;;;;;;;;;12.40;61.59;101439.97;5034727;28;19917;-77
2022/11/14 09:28:35;;;;;;;;;;;;;;;12.48;60.89;101428.88;5053253;28;19917;-79
2022/11/14 09:31:01;;;;;;;;;;;;;;;11.59;63.43;101438.31;5054539;28;20015;-79
2022/11/14 09:33:26;;;;;;;;;;;;;;;12.24;61.96;101432.47;5054523;28;19952;-78
2022/11/14 09:35:56;;;;;;;;;;;;;;;11.82;63.10;101431.34;5055144;28;20167;-77
2022/11/14 09:38:21;;;;;;;;;;;;;;;12.29;61.48;101438.81;5054370;28;20074;-77
2022/11/14 09:40:46;;;;;;;;;;;;;;;12.35;61.69;101434.41;5054449;28;20363;-76
2022/11/14 09:43:30;;;;;;;;;;;;;;;13.03;59.97;101443.22;5043490;28;19921;-77
2022/11/14 09:45:55;;;;;;;;;;;;;;;11.98;62.35;101438.91;5034408;28;19917;-78
2022/11/14 09:48:24;;;;;;;;;;;;;;;11.49;63.83;101441.50;5034378;28;19963;-79
2022/11/14 09:51:04;;;;;;;;;;;;;;;12.11;63.12;101436.09;5035193;28;20003;-78
2022/11/14 09:53:36;;;;;;;;;;;;;;;11.98;63.06;101436.22;5054299;28;19923;-78
2022/11/14 09:56:01;;;;;;;;;;;;;;;11.89;63.50;101437.50;5054162;28;19970;-76
2022/11/14 09:58:27;;;;;;;;;;;;;;;11.99;63.42;101432.44;5054086;28;20338;-77
2022/11/14 10:01:07;;;;;;;;;;;;;;;12.19;62.74;101429.59;5053981;28;20392;-78
2022/11/14 10:03:42;;;;;;;;;;;;;;;12.60;61.87;101421.69;5052376;28;19917;-77
2022/11/14 10:06:23;;;;;;;;;;;;;;;13.09;59.88;101423.44;5054115;28;19925;-79
2022/11/14 10:09:03;;;;;;;;;;;;;;;12.32;62.16;101418.69;5052928;28;19908;-77
2022/11/14 10:11:29;;;;;;;;;;;;;;;12.48;61.84;101415.41;5054224;28;20335;-78
2022/11/14 10:14:13;;;;;;;;;;;;;;;12.51;61.60;101412.28;5052526;28;19917;-78
2022/11/14 10:16:52;;;;;;;;;;;;;;;12.43;61.63;101415.25;5053817;28;19948;-78
2022/11/14 10:19:20;;;;;;;;;;;;;;;12.58;61.32;101412.22;5053365;28;19921;-78
2022/11/14 10:21:45;;;;;;;;;;;;;;;12.53;61.67;101409.34;5053850;28;19923;-80
2022/11/14 10:24:25;;;;;;;;;;;;;;;13.28;59.92;101416.13;5044748;28;19921;-79
2022/11/14 10:26:56;;;;;;;;;;;;;;;12.77;60.87;101406.59;5034844;28;19913;-77
2022/11/14 10:29:25;;;;;;;;;;;;;;;12.75;61.41;101407.84;5053413;28;19920;-77
2022/11/14 10:31:50;;;;;;;;;;;;;;;13.40;59.66;101400.81;5053165;28;20348;-76
2022/11/14 10:34:26;;;;;;;;;;;;;;;13.05;60.20;101401.47;5051631;28;19924;-78
2022/11/14 10:37:05;;;;;;;;;;;;;;;12.88;60.07;101402.28;5053483;28;20387;-78
2022/11/14 10:39:39;;;;;;;;;;;;;;;12.37;62.55;101402.69;5052826;28;19948;-77
2022/11/14 10:42:12;;;;;;;;;;;;;;;13.32;59.32;101391.16;5053273;28;19948;-79
2022/11/14 10:44:41;;;;;;;;;;;;;;;13.31;59.90;101381.41;5053841;28;19934;-78
2022/11/14 10:47:11;;;;;;;;;;;;;;;13.26;59.74;101372.34;5053082;28;19912;-77
2022/11/14 10:49:37;;;;;;;;;;;;;;;13.31;59.46;101359.81;5053216;28;20030;-77
2022/11/14 10:52:05;;;;;;;;;;;;;;;13.25;59.62;101363.41;5053158;28;20392;-77
2022/11/14 10:54:35;;;;;;;;;;;;;;;13.42;58.99;101355.50;5053112;28;19916;-78
2022/11/14 10:57:00;;;;;;;;;;;;;;;13.97;57.46;101343.38;5052914;28;19944;-76
2022/11/14 10:59:26;;;;;;;;;;;;;;;14.00;57.45;101342.88;5053331;28;19976;-77
2022/11/14 11:01:56;;;;;;;;;;;;;;;13.77;57.99;101337.47;5052961;28;19923;-77
2022/11/14 11:04:37;;;;;;;;;;;;;;;14.26;56.75;101333.47;5052814;28;19920;-77
2022/11/14 11:07:05;;;;;;;;;;;;;;;13.74;57.67;101325.25;5052944;28;19916;-78
2022/11/14 11:12:18;;;;;;;;;;;;;;;13.83;58.19;101313.06;5053013;28;19924;-78
2022/11/14 11:14:44;;;;;;;;;;;;;;;13.64;58.24;101318.81;5053183;28;19901;-77
2022/11/14 11:17:09;;;;;;;;;;;;;;;13.77;58.36;101311.28;5052377;28;20008;-77
2022/11/14 11:19:34;;;;;;;;;;;;;;;13.56;59.00;101317.25;5052420;28;20067;-77
2022/11/14 11:22:00;;;;;;;;;;;;;;;14.06;57.53;101314.91;5052611;28;19924;-78
2022/11/14 11:24:31;;;;;;;;;;;;;;;14.11;58.00;101310.44;5041479;28;20385;-77
2022/11/14 11:27:15;;;;;;;;;;;;;;;14.05;57.42;101313.28;5034904;28;19908;-77
2022/11/14 11:29:40;;;;;;;;;;;;;;;15.15;54.81;101297.66;5052760;28;20202;-74
2022/11/14 11:32:07;;;;;;;;;;;;;;;14.67;55.54;101295.41;5052102;28;19944;-74
2022/11/14 11:34:33;;;;;;;;;;;;;;;14.21;56.60;101290.13;5051832;28;20373;-75
2022/11/14 11:37:01;;;;;;;;;;;;;;;14.68;55.51;101297.88;5052065;28;19921;-74
2022/11/14 11:39:28;;;;;;;;;;;;;;;14.71;55.71;101288.47;5051779;28;20399;-73
2022/11/14 11:41:56;;;;;;;;;;;;;;;14.04;57.07;101290.84;5052912;28;19917;-73
2022/11/14 11:44:25;;;;;;;;;;;;;;;14.58;56.17;101291.47;5049917;28;19920;-73
2022/11/14 11:46:55;;;;;;;;;;;;;;;14.90;54.62;101284.47;5052207;28;19948;-76
2022/11/14 11:49:26;;;;;;;;;;;;;;;15.18;53.84;101283.63;5052043;28;20015;-73
2022/11/14 11:51:54;;;;;;;;;;;;;;;15.09;53.63;101294.06;5050522;28;19917;-74
2022/11/14 11:54:22;;;;;;;;;;;;;;;14.47;55.66;101281.47;5052154;28;19920;-71
2022/11/14 11:56:51;;;;;;;;;;;;;;;14.46;56.06;101286.09;5052470;28;19900;-73
2022/11/14 11:59:32;;;;;;;;;;;;;;;14.65;55.50;101284.84;5051706;28;20011;-73
2022/11/14 12:01:57;;;;;;;;;;;;;;;14.71;55.50;101285.75;5051762;28;20007;-74
2022/11/14 12:04:23;;;;;;;;;;;;;;;14.74;55.35;101277.97;5051711;28;20046;-74
2022/11/14 12:07:11;;;;;;;;;;;;;;;14.92;54.81;101279.66;5051861;28;19916;-74
2022/11/14 12:09:37;;;;;;;;;;;;;;;15.11;54.45;101269.44;4990026;28;19917;-73
2022/11/14 12:12:06;;;;;;;;;;;;;;;15.46;53.43;101283.59;4989595;28;19948;-72
2022/11/14 12:14:34;;;;;;;;;;;;;;;15.33;53.50;101273.09;4990358;28;19979;-73
2022/11/14 12:16:59;;;;;;;;;;;;;;;15.15;53.80;101273.31;4989488;28;20124;-74
2022/11/14 12:19:43;;;;;;;;;;;;;;;14.46;55.07;101275.28;4989585;28;20390;-73
2022/11/14 12:22:21;;;;;;;;;;;;;;;15.20;53.08;101259.84;4989866;28;20393;-72
2022/11/14 12:24:49;;;;;;;;;;;;;;;15.74;51.91;101265.34;4989503;28;19918;-73
2022/11/14 12:27:34;;;;;;;;;;;;;;;15.54;52.32;101258.81;4989337;28;19914;-73
2022/11/14 12:30:22;;;;;;;;;;;;;;;15.81;51.58;101252.47;4989473;28;20445;-75
2022/11/14 12:32:57;;;;;;;;;;;;;;;15.45;52.50;101242.16;4989487;28;19914;-73
2022/11/14 12:35:28;;;;;;;;;;;;;;;15.42;52.65;101244.53;4989277;28;20329;-73